sensor_id;sensor_type;location;lat;lon;timestamp;P1;durP1;ratioP1;P2;durP2;ratioP2
4210;SDS011;2119;48.828;12.396;2022-08-03T00:00:21;2.80;;;2.60;;
4210;SDS011;2119;48.828;12.396;2022-08-03T00:05:23;3.13;;;2.80;;
4210;SDS011;2119;48.828;12.396;2022-08-03T00:10:23;3.30;;;3.10;;
4210;SDS011;2119;48.828;12.396;2022-08-03T00:15:23;2.97;;;2.77;;
4210;SDS011;2119;48.828;12.396;2022-08-03T00:20:23;3.10;;;2.90;;
4210;SDS011;2119;48.828;12.396;2022-08-03T00:25:24;17.40;;;3.83;;
4210;SDS011;2119;48.828;12.396;2022-08-03T00:30:24;3.90;;;2.50;;
4210;SDS011;2119;48.828;12.396;2022-08-03T00:35:24;5.30;;;3.07;;
4210;SDS011;2119;48.828;12.396;2022-08-03T00:40:25;3.77;;;3.10;;
4210;SDS011;2119;48.828;12.396;2022-08-03T00:45:26;3.43;;;3.20;;
4210;SDS011;2119;48.828;12.396;2022-08-03T00:50:28;3.40;;;3.10;;
4210;SDS011;2119;48.828;12.396;2022-08-03T00:55:28;4.90;;;3.37;;
4210;SDS011;2119;48.828;12.396;2022-08-03T01:00:29;4.03;;;3.35;;
4210;SDS011;2119;48.828;12.396;2022-08-03T01:05:29;3.47;;;3.17;;
4210;SDS011;2119;48.828;12.396;2022-08-03T01:10:38;3.10;;;2.90;;
4210;SDS011;2119;48.828;12.396;2022-08-03T01:20:42;3.67;;;3.40;;
4210;SDS011;2119;48.828;12.396;2022-08-03T01:25:58;2.57;;;2.40;;
4210;SDS011;2119;48.828;12.396;2022-08-03T01:31:06;3.97;;;3.67;;
4210;SDS011;2119;48.828;12.396;2022-08-03T01:36:12;3.60;;;3.30;;
4210;SDS011;2119;48.828;12.396;2022-08-03T01:41:14;3.40;;;3.20;;
4210;SDS011;2119;48.828;12.396;2022-08-03T01:46:16;3.93;;;3.60;;
4210;SDS011;2119;48.828;12.396;2022-08-03T01:51:18;6.00;;;3.73;;
4210;SDS011;2119;48.828;12.396;2022-08-03T01:56:19;3.70;;;3.40;;
4210;SDS011;2119;48.828;12.396;2022-08-03T02:01:21;4.40;;;3.90;;
4210;SDS011;2119;48.828;12.396;2022-08-03T02:06:22;4.23;;;3.40;;
4210;SDS011;2119;48.828;12.396;2022-08-03T02:11:23;3.80;;;3.43;;
4210;SDS011;2119;48.828;12.396;2022-08-03T02:16:24;4.70;;;3.23;;
4210;SDS011;2119;48.828;12.396;2022-08-03T02:21:25;3.40;;;3.20;;
4210;SDS011;2119;48.828;12.396;2022-08-03T02:26:28;3.13;;;2.93;;
4210;SDS011;2119;48.828;12.396;2022-08-03T02:31:29;5.40;;;3.33;;
4210;SDS011;2119;48.828;12.396;2022-08-03T02:36:32;3.57;;;3.20;;
4210;SDS011;2119;48.828;12.396;2022-08-03T02:41:37;3.20;;;3.00;;
4210;SDS011;2119;48.828;12.396;2022-08-03T02:46:41;4.60;;;3.70;;
4210;SDS011;2119;48.828;12.396;2022-08-03T02:51:43;3.80;;;3.40;;
4210;SDS011;2119;48.828;12.396;2022-08-03T02:56:44;7.30;;;3.83;;
4210;SDS011;2119;48.828;12.396;2022-08-03T03:01:45;5.33;;;4.00;;
4210;SDS011;2119;48.828;12.396;2022-08-03T03:06:45;4.03;;;3.73;;
4210;SDS011;2119;48.828;12.396;2022-08-03T03:11:47;3.30;;;3.10;;
4210;SDS011;2119;48.828;12.396;2022-08-03T03:16:48;4.53;;;4.20;;
4210;SDS011;2119;48.828;12.396;2022-08-03T03:21:49;3.93;;;3.60;;
4210;SDS011;2119;48.828;12.396;2022-08-03T03:26:50;3.60;;;3.40;;
4210;SDS011;2119;48.828;12.396;2022-08-03T03:31:51;4.40;;;4.00;;
4210;SDS011;2119;48.828;12.396;2022-08-03T03:36:52;4.30;;;4.00;;
4210;SDS011;2119;48.828;12.396;2022-08-03T03:41:53;3.70;;;3.50;;
4210;SDS011;2119;48.828;12.396;2022-08-03T03:46:54;5.50;;;3.80;;
4210;SDS011;2119;48.828;12.396;2022-08-03T03:51:54;3.77;;;3.50;;
4210;SDS011;2119;48.828;12.396;2022-08-03T03:56:54;3.85;;;3.55;;
4210;SDS011;2119;48.828;12.396;2022-08-03T04:01:55;4.50;;;4.20;;
4210;SDS011;2119;48.828;12.396;2022-08-03T04:06:55;3.70;;;3.50;;
4210;SDS011;2119;48.828;12.396;2022-08-03T04:12:14;3.50;;;3.30;;
4210;SDS011;2119;48.828;12.396;2022-08-03T04:17:16;4.60;;;4.20;;
4210;SDS011;2119;48.828;12.396;2022-08-03T04:22:18;4.27;;;3.70;;
4210;SDS011;2119;48.828;12.396;2022-08-03T04:27:23;3.80;;;3.23;;
4210;SDS011;2119;48.828;12.396;2022-08-03T04:32:24;4.20;;;3.90;;
4210;SDS011;2119;48.828;12.396;2022-08-03T04:37:47;4.47;;;4.00;;
4210;SDS011;2119;48.828;12.396;2022-08-03T04:42:48;3.27;;;3.07;;
4210;SDS011;2119;48.828;12.396;2022-08-03T04:47:49;4.00;;;3.70;;
4210;SDS011;2119;48.828;12.396;2022-08-03T04:52:50;4.30;;;4.00;;
4210;SDS011;2119;48.828;12.396;2022-08-03T04:57:50;5.70;;;4.10;;
4210;SDS011;2119;48.828;12.396;2022-08-03T05:02:52;4.10;;;3.70;;
4210;SDS011;2119;48.828;12.396;2022-08-03T05:07:53;4.57;;;4.23;;
4210;SDS011;2119;48.828;12.396;2022-08-03T05:12:53;4.77;;;4.47;;
4210;SDS011;2119;48.828;12.396;2022-08-03T05:17:54;5.27;;;4.77;;
4210;SDS011;2119;48.828;12.396;2022-08-03T05:23:00;5.07;;;4.67;;
4210;SDS011;2119;48.828;12.396;2022-08-03T05:28:04;5.83;;;5.30;;
4210;SDS011;2119;48.828;12.396;2022-08-03T05:33:05;4.73;;;4.43;;
4210;SDS011;2119;48.828;12.396;2022-08-03T05:38:06;5.40;;;5.07;;
4210;SDS011;2119;48.828;12.396;2022-08-03T05:43:06;5.90;;;5.40;;
4210;SDS011;2119;48.828;12.396;2022-08-03T05:48:06;5.60;;;5.20;;
4210;SDS011;2119;48.828;12.396;2022-08-03T05:53:07;5.70;;;5.25;;
4210;SDS011;2119;48.828;12.396;2022-08-03T05:58:07;5.47;;;4.97;;
4210;SDS011;2119;48.828;12.396;2022-08-03T06:03:07;6.33;;;5.73;;
4210;SDS011;2119;48.828;12.396;2022-08-03T06:08:07;6.30;;;5.80;;
4210;SDS011;2119;48.828;12.396;2022-08-03T06:13:08;5.63;;;5.23;;
4210;SDS011;2119;48.828;12.396;2022-08-03T06:18:08;6.72;;;5.10;;
4210;SDS011;2119;48.828;12.396;2022-08-03T06:23:08;14.50;;;4.87;;
4210;SDS011;2119;48.828;12.396;2022-08-03T06:28:08;4.72;;;4.45;;
4210;SDS011;2119;48.828;12.396;2022-08-03T06:33:08;6.18;;;4.45;;
4210;SDS011;2119;48.828;12.396;2022-08-03T06:38:09;4.50;;;3.60;;
4210;SDS011;2119;48.828;12.396;2022-08-03T06:43:09;5.30;;;4.80;;
4210;SDS011;2119;48.828;12.396;2022-08-03T06:48:10;4.80;;;4.50;;
4210;SDS011;2119;48.828;12.396;2022-08-03T06:53:10;4.10;;;3.80;;
4210;SDS011;2119;48.828;12.396;2022-08-03T06:58:10;6.80;;;4.27;;
4210;SDS011;2119;48.828;12.396;2022-08-03T07:03:11;4.30;;;3.97;;
4210;SDS011;2119;48.828;12.396;2022-08-03T07:08:11;4.10;;;3.80;;
4210;SDS011;2119;48.828;12.396;2022-08-03T07:13:11;3.90;;;3.70;;
4210;SDS011;2119;48.828;12.396;2022-08-03T07:18:12;3.90;;;3.70;;
4210;SDS011;2119;48.828;12.396;2022-08-03T07:23:12;3.57;;;3.37;;
4210;SDS011;2119;48.828;12.396;2022-08-03T07:28:12;3.47;;;3.27;;
4210;SDS011;2119;48.828;12.396;2022-08-03T07:33:13;3.33;;;3.13;;
4210;SDS011;2119;48.828;12.396;2022-08-03T07:38:14;3.73;;;3.43;;
4210;SDS011;2119;48.828;12.396;2022-08-03T07:43:15;3.70;;;3.50;;
4210;SDS011;2119;48.828;12.396;2022-08-03T07:48:16;4.70;;;3.13;;
4210;SDS011;2119;48.828;12.396;2022-08-03T07:53:16;3.23;;;3.03;;
4210;SDS011;2119;48.828;12.396;2022-08-03T07:58:17;3.87;;;3.33;;
4210;SDS011;2119;48.828;12.396;2022-08-03T08:03:17;2.90;;;2.70;;
4210;SDS011;2119;48.828;12.396;2022-08-03T08:08:18;2.80;;;2.60;;
4210;SDS011;2119;48.828;12.396;2022-08-03T08:13:19;2.97;;;2.80;;
4210;SDS011;2119;48.828;12.396;2022-08-03T08:18:19;3.03;;;2.90;;
4210;SDS011;2119;48.828;12.396;2022-08-03T08:23:19;2.57;;;2.47;;
4210;SDS011;2119;48.828;12.396;2022-08-03T08:28:22;2.83;;;2.57;;
4210;SDS011;2119;48.828;12.396;2022-08-03T08:33:22;3.83;;;3.57;;
4210;SDS011;2119;48.828;12.396;2022-08-03T08:38:22;2.70;;;2.50;;
4210;SDS011;2119;48.828;12.396;2022-08-03T08:43:23;2.93;;;2.73;;
4210;SDS011;2119;48.828;12.396;2022-08-03T08:48:24;2.80;;;2.60;;
4210;SDS011;2119;48.828;12.396;2022-08-03T08:53:25;3.20;;;3.00;;
4210;SDS011;2119;48.828;12.396;2022-08-03T08:58:25;3.23;;;3.03;;
4210;SDS011;2119;48.828;12.396;2022-08-03T09:03:27;2.80;;;2.60;;
4210;SDS011;2119;48.828;12.396;2022-08-03T09:08:28;3.00;;;2.80;;
4210;SDS011;2119;48.828;12.396;2022-08-03T09:13:28;3.70;;;3.50;;
4210;SDS011;2119;48.828;12.396;2022-08-03T09:18:29;3.20;;;3.00;;
4210;SDS011;2119;48.828;12.396;2022-08-03T09:23:51;3.70;;;3.40;;
4210;SDS011;2119;48.828;12.396;2022-08-03T09:28:57;4.37;;;2.77;;
4210;SDS011;2119;48.828;12.396;2022-08-03T09:34:02;2.80;;;2.60;;
4210;SDS011;2119;48.828;12.396;2022-08-03T09:39:13;2.93;;;2.73;;
4210;SDS011;2119;48.828;12.396;2022-08-03T09:44:13;2.10;;;2.00;;
4210;SDS011;2119;48.828;12.396;2022-08-03T09:49:14;3.60;;;1.63;;
4210;SDS011;2119;48.828;12.396;2022-08-03T09:54:30;2.47;;;2.27;;
4210;SDS011;2119;48.828;12.396;2022-08-03T09:59:31;2.13;;;2.03;;
4210;SDS011;2119;48.828;12.396;2022-08-03T10:04:31;2.17;;;2.07;;
4210;SDS011;2119;48.828;12.396;2022-08-03T10:09:32;2.10;;;2.00;;
4210;SDS011;2119;48.828;12.396;2022-08-03T10:14:32;2.83;;;2.30;;
4210;SDS011;2119;48.828;12.396;2022-08-03T10:19:32;3.70;;;2.37;;
4210;SDS011;2119;48.828;12.396;2022-08-03T10:24:33;2.00;;;1.90;;
4210;SDS011;2119;48.828;12.396;2022-08-03T10:29:38;2.30;;;2.20;;
4210;SDS011;2119;48.828;12.396;2022-08-03T10:34:41;2.63;;;1.80;;
4210;SDS011;2119;48.828;12.396;2022-08-03T10:39:41;1.97;;;1.87;;
4210;SDS011;2119;48.828;12.396;2022-08-03T10:44:55;2.33;;;2.23;;
4210;SDS011;2119;48.828;12.396;2022-08-03T10:49:59;2.17;;;2.07;;
4210;SDS011;2119;48.828;12.396;2022-08-03T10:55:00;2.23;;;2.07;;
4210;SDS011;2119;48.828;12.396;2022-08-03T11:00:22;2.80;;;1.83;;
4210;SDS011;2119;48.828;12.396;2022-08-03T11:05:29;2.20;;;2.00;;
4210;SDS011;2119;48.828;12.396;2022-08-03T11:10:30;2.70;;;2.60;;
4210;SDS011;2119;48.828;12.396;2022-08-03T11:15:31;1.80;;;1.70;;
4210;SDS011;2119;48.828;12.396;2022-08-03T11:20:52;2.70;;;2.50;;
4210;SDS011;2119;48.828;12.396;2022-08-03T11:26:11;2.10;;;2.00;;
4210;SDS011;2119;48.828;12.396;2022-08-03T11:36:21;2.37;;;2.00;;
4210;SDS011;2119;48.828;12.396;2022-08-03T11:41:31;2.20;;;2.10;;
4210;SDS011;2119;48.828;12.396;2022-08-03T11:46:38;1.80;;;1.70;;
4210;SDS011;2119;48.828;12.396;2022-08-03T11:51:38;3.00;;;2.33;;
4210;SDS011;2119;48.828;12.396;2022-08-03T11:56:43;2.53;;;2.10;;
4210;SDS011;2119;48.828;12.396;2022-08-03T12:01:49;2.23;;;2.03;;
4210;SDS011;2119;48.828;12.396;2022-08-03T12:07:08;1.77;;;1.67;;
4210;SDS011;2119;48.828;12.396;2022-08-03T12:12:14;2.20;;;2.03;;
4210;SDS011;2119;48.828;12.396;2022-08-03T12:17:23;1.70;;;1.60;;
4210;SDS011;2119;48.828;12.396;2022-08-03T12:22:36;1.90;;;1.80;;
4210;SDS011;2119;48.828;12.396;2022-08-03T12:27:39;1.93;;;1.83;;
4210;SDS011;2119;48.828;12.396;2022-08-03T12:32:41;2.40;;;1.90;;
4210;SDS011;2119;48.828;12.396;2022-08-03T12:37:46;2.70;;;2.10;;
4210;SDS011;2119;48.828;12.396;2022-08-03T12:42:46;1.90;;;1.80;;
4210;SDS011;2119;48.828;12.396;2022-08-03T12:47:54;2.40;;;2.20;;
4210;SDS011;2119;48.828;12.396;2022-08-03T12:52:55;4.17;;;1.80;;
4210;SDS011;2119;48.828;12.396;2022-08-03T12:57:55;3.53;;;2.10;;
4210;SDS011;2119;48.828;12.396;2022-08-03T13:03:00;1.90;;;1.80;;
4210;SDS011;2119;48.828;12.396;2022-08-03T13:08:01;2.20;;;2.10;;
4210;SDS011;2119;48.828;12.396;2022-08-03T13:18:05;2.13;;;2.03;;
4210;SDS011;2119;48.828;12.396;2022-08-03T13:23:06;2.30;;;1.90;;
4210;SDS011;2119;48.828;12.396;2022-08-03T13:28:07;1.70;;;1.60;;
4210;SDS011;2119;48.828;12.396;2022-08-03T13:33:07;2.03;;;1.87;;
4210;SDS011;2119;48.828;12.396;2022-08-03T13:38:07;1.97;;;1.87;;
4210;SDS011;2119;48.828;12.396;2022-08-03T13:43:07;2.37;;;2.27;;
4210;SDS011;2119;48.828;12.396;2022-08-03T13:48:08;2.10;;;2.00;;
4210;SDS011;2119;48.828;12.396;2022-08-03T13:53:09;1.97;;;1.87;;
4210;SDS011;2119;48.828;12.396;2022-08-03T13:58:09;2.03;;;1.90;;
4210;SDS011;2119;48.828;12.396;2022-08-03T14:03:11;1.80;;;1.70;;
4210;SDS011;2119;48.828;12.396;2022-08-03T14:08:11;2.33;;;1.90;;
4210;SDS011;2119;48.828;12.396;2022-08-03T14:13:12;1.80;;;1.70;;
4210;SDS011;2119;48.828;12.396;2022-08-03T14:18:14;1.80;;;1.70;;
4210;SDS011;2119;48.828;12.396;2022-08-03T14:23:14;3.03;;;1.80;;
4210;SDS011;2119;48.828;12.396;2022-08-03T14:28:15;1.97;;;1.87;;
4210;SDS011;2119;48.828;12.396;2022-08-03T14:33:15;1.80;;;1.70;;
4210;SDS011;2119;48.828;12.396;2022-08-03T14:38:16;1.90;;;1.80;;
4210;SDS011;2119;48.828;12.396;2022-08-03T14:43:17;2.17;;;2.07;;
4210;SDS011;2119;48.828;12.396;2022-08-03T14:48:19;2.67;;;2.47;;
4210;SDS011;2119;48.828;12.396;2022-08-03T14:53:20;1.70;;;1.60;;
4210;SDS011;2119;48.828;12.396;2022-08-03T14:58:21;1.80;;;1.70;;
4210;SDS011;2119;48.828;12.396;2022-08-03T15:03:21;2.07;;;1.97;;
4210;SDS011;2119;48.828;12.396;2022-08-03T15:08:24;1.93;;;1.70;;
4210;SDS011;2119;48.828;12.396;2022-08-03T15:13:25;1.90;;;1.80;;
4210;SDS011;2119;48.828;12.396;2022-08-03T15:18:25;3.83;;;1.60;;
4210;SDS011;2119;48.828;12.396;2022-08-03T15:23:26;3.50;;;1.80;;
4210;SDS011;2119;48.828;12.396;2022-08-03T15:28:26;1.80;;;1.70;;
4210;SDS011;2119;48.828;12.396;2022-08-03T15:33:26;2.50;;;1.70;;
4210;SDS011;2119;48.828;12.396;2022-08-03T15:38:27;2.70;;;1.80;;
4210;SDS011;2119;48.828;12.396;2022-08-03T15:43:27;1.83;;;1.70;;
4210;SDS011;2119;48.828;12.396;2022-08-03T15:48:27;2.17;;;1.90;;
4210;SDS011;2119;48.828;12.396;2022-08-03T15:53:27;1.80;;;1.70;;
4210;SDS011;2119;48.828;12.396;2022-08-03T15:58:28;1.87;;;1.77;;
4210;SDS011;2119;48.828;12.396;2022-08-03T16:03:29;1.97;;;1.77;;
4210;SDS011;2119;48.828;12.396;2022-08-03T16:08:35;1.97;;;1.87;;
4210;SDS011;2119;48.828;12.396;2022-08-03T16:13:35;2.00;;;1.80;;
4210;SDS011;2119;48.828;12.396;2022-08-03T16:18:36;1.87;;;1.77;;
4210;SDS011;2119;48.828;12.396;2022-08-03T16:23:38;2.70;;;2.07;;
4210;SDS011;2119;48.828;12.396;2022-08-03T16:28:38;2.10;;;2.00;;
4210;SDS011;2119;48.828;12.396;2022-08-03T16:33:39;2.33;;;1.97;;
4210;SDS011;2119;48.828;12.396;2022-08-03T16:38:39;1.80;;;1.70;;
4210;SDS011;2119;48.828;12.396;2022-08-03T16:43:39;1.80;;;1.70;;
4210;SDS011;2119;48.828;12.396;2022-08-03T16:48:39;1.60;;;1.50;;
4210;SDS011;2119;48.828;12.396;2022-08-03T16:53:40;1.87;;;1.77;;
4210;SDS011;2119;48.828;12.396;2022-08-03T16:58:40;1.80;;;1.70;;
4210;SDS011;2119;48.828;12.396;2022-08-03T17:03:42;2.03;;;1.83;;
4210;SDS011;2119;48.828;12.396;2022-08-03T17:08:42;2.13;;;1.93;;
4210;SDS011;2119;48.828;12.396;2022-08-03T17:13:43;1.80;;;1.70;;
4210;SDS011;2119;48.828;12.396;2022-08-03T17:18:54;3.03;;;2.83;;
4210;SDS011;2119;48.828;12.396;2022-08-03T17:29:01;3.80;;;1.93;;
4210;SDS011;2119;48.828;12.396;2022-08-03T17:34:02;3.20;;;1.90;;
4210;SDS011;2119;48.828;12.396;2022-08-03T17:39:05;1.90;;;1.80;;
4210;SDS011;2119;48.828;12.396;2022-08-03T17:44:06;2.90;;;2.00;;
4210;SDS011;2119;48.828;12.396;2022-08-03T17:49:06;2.23;;;2.03;;
4210;SDS011;2119;48.828;12.396;2022-08-03T17:54:12;2.10;;;1.93;;
4210;SDS011;2119;48.828;12.396;2022-08-03T17:59:27;3.67;;;1.90;;
4210;SDS011;2119;48.828;12.396;2022-08-03T18:04:29;2.07;;;1.97;;
4210;SDS011;2119;48.828;12.396;2022-08-03T18:09:31;2.80;;;2.40;;
4210;SDS011;2119;48.828;12.396;2022-08-03T18:14:42;3.37;;;2.00;;
4210;SDS011;2119;48.828;12.396;2022-08-03T18:19:43;2.13;;;2.03;;
4210;SDS011;2119;48.828;12.396;2022-08-03T18:24:43;2.20;;;2.00;;
4210;SDS011;2119;48.828;12.396;2022-08-03T18:29:44;3.47;;;2.20;;
4210;SDS011;2119;48.828;12.396;2022-08-03T18:34:45;3.30;;;1.90;;
4210;SDS011;2119;48.828;12.396;2022-08-03T18:39:46;2.20;;;1.87;;
4210;SDS011;2119;48.828;12.396;2022-08-03T18:44:47;2.20;;;2.00;;
4210;SDS011;2119;48.828;12.396;2022-08-03T18:55:07;5.30;;;2.70;;
4210;SDS011;2119;48.828;12.396;2022-08-03T19:00:11;3.03;;;2.50;;
4210;SDS011;2119;48.828;12.396;2022-08-03T19:05:35;5.40;;;2.23;;
4210;SDS011;2119;48.828;12.396;2022-08-03T19:10:37;2.20;;;2.10;;
4210;SDS011;2119;48.828;12.396;2022-08-03T19:15:39;5.53;;;2.90;;
4210;SDS011;2119;48.828;12.396;2022-08-03T19:20:41;4.27;;;2.30;;
4210;SDS011;2119;48.828;12.396;2022-08-03T19:25:42;3.07;;;2.33;;
4210;SDS011;2119;48.828;12.396;2022-08-03T19:30:43;2.50;;;2.30;;
4210;SDS011;2119;48.828;12.396;2022-08-03T19:35:45;8.03;;;2.60;;
4210;SDS011;2119;48.828;12.396;2022-08-03T19:40:46;9.27;;;2.43;;
4210;SDS011;2119;48.828;12.396;2022-08-03T19:45:47;2.73;;;2.50;;
4210;SDS011;2119;48.828;12.396;2022-08-03T19:50:49;4.90;;;2.43;;
4210;SDS011;2119;48.828;12.396;2022-08-03T19:55:52;3.23;;;2.43;;
4210;SDS011;2119;48.828;12.396;2022-08-03T20:00:53;2.70;;;2.60;;
4210;SDS011;2119;48.828;12.396;2022-08-03T20:05:53;2.43;;;2.33;;
4210;SDS011;2119;48.828;12.396;2022-08-03T20:10:54;2.97;;;2.60;;
4210;SDS011;2119;48.828;12.396;2022-08-03T20:15:54;6.27;;;2.73;;
4210;SDS011;2119;48.828;12.396;2022-08-03T20:20:54;3.97;;;2.50;;
4210;SDS011;2119;48.828;12.396;2022-08-03T20:25:57;3.97;;;2.80;;
4210;SDS011;2119;48.828;12.396;2022-08-03T20:30:58;2.80;;;2.60;;
4210;SDS011;2119;48.828;12.396;2022-08-03T20:35:59;3.83;;;3.07;;
4210;SDS011;2119;48.828;12.396;2022-08-03T20:40:59;2.70;;;2.50;;
4210;SDS011;2119;48.828;12.396;2022-08-03T20:45:59;5.53;;;2.80;;
4210;SDS011;2119;48.828;12.396;2022-08-03T20:50:59;4.90;;;3.40;;
4210;SDS011;2119;48.828;12.396;2022-08-03T20:56:00;4.10;;;2.43;;
4210;SDS011;2119;48.828;12.396;2022-08-03T21:01:01;3.10;;;2.90;;
4210;SDS011;2119;48.828;12.396;2022-08-03T21:06:02;4.33;;;2.87;;
4210;SDS011;2119;48.828;12.396;2022-08-03T21:11:06;5.93;;;2.90;;
4210;SDS011;2119;48.828;12.396;2022-08-03T21:16:10;9.33;;;3.10;;
4210;SDS011;2119;48.828;12.396;2022-08-03T21:21:12;3.30;;;2.87;;
4210;SDS011;2119;48.828;12.396;2022-08-03T21:26:13;5.00;;;2.77;;
4210;SDS011;2119;48.828;12.396;2022-08-03T21:31:14;9.67;;;3.30;;
4210;SDS011;2119;48.828;12.396;2022-08-03T21:36:14;7.00;;;2.80;;
4210;SDS011;2119;48.828;12.396;2022-08-03T21:41:15;4.63;;;2.97;;
4210;SDS011;2119;48.828;12.396;2022-08-03T21:46:15;6.07;;;3.10;;
4210;SDS011;2119;48.828;12.396;2022-08-03T21:51:17;2.93;;;2.73;;
4210;SDS011;2119;48.828;12.396;2022-08-03T21:56:19;8.47;;;2.67;;
4210;SDS011;2119;48.828;12.396;2022-08-03T22:01:24;5.13;;;2.93;;
4210;SDS011;2119;48.828;12.396;2022-08-03T22:06:24;4.90;;;3.03;;
4210;SDS011;2119;48.828;12.396;2022-08-03T22:11:26;3.87;;;3.27;;
4210;SDS011;2119;48.828;12.396;2022-08-03T22:16:26;3.60;;;2.50;;
4210;SDS011;2119;48.828;12.396;2022-08-03T22:21:27;5.13;;;3.20;;
4210;SDS011;2119;48.828;12.396;2022-08-03T22:26:29;3.10;;;2.73;;
4210;SDS011;2119;48.828;12.396;2022-08-03T22:31:29;2.90;;;2.60;;
4210;SDS011;2119;48.828;12.396;2022-08-03T22:36:30;6.70;;;3.60;;
4210;SDS011;2119;48.828;12.396;2022-08-03T22:41:31;4.73;;;3.77;;
4210;SDS011;2119;48.828;12.396;2022-08-03T22:46:31;7.37;;;3.03;;
4210;SDS011;2119;48.828;12.396;2022-08-03T22:51:31;8.07;;;3.27;;
4210;SDS011;2119;48.828;12.396;2022-08-03T22:56:32;4.77;;;3.50;;
4210;SDS011;2119;48.828;12.396;2022-08-03T23:01:35;3.40;;;3.20;;
4210;SDS011;2119;48.828;12.396;2022-08-03T23:06:37;3.60;;;2.83;;
4210;SDS011;2119;48.828;12.396;2022-08-03T23:11:38;10.80;;;3.60;;
4210;SDS011;2119;48.828;12.396;2022-08-03T23:16:39;4.00;;;3.13;;
4210;SDS011;2119;48.828;12.396;2022-08-03T23:21:40;6.73;;;2.90;;
4210;SDS011;2119;48.828;12.396;2022-08-03T23:26:40;4.30;;;3.13;;
4210;SDS011;2119;48.828;12.396;2022-08-03T23:31:41;4.97;;;2.97;;
4210;SDS011;2119;48.828;12.396;2022-08-03T23:36:43;10.50;;;4.10;;
4210;SDS011;2119;48.828;12.396;2022-08-03T23:41:46;6.20;;;3.80;;
4210;SDS011;2119;48.828;12.396;2022-08-03T23:46:47;10.17;;;3.83;;
4210;SDS011;2119;48.828;12.396;2022-08-03T23:57:06;7.63;;;3.33;;
